createdAt,value
2019-01-30T00:04:11.172Z,40.63
2019-01-30T00:09:16.218Z,45.43
2019-01-30T00:14:21.709Z,41.73
2019-01-30T00:19:27.084Z,46.07
2019-01-30T00:24:33.906Z,42.40
2019-01-30T00:29:44.062Z,47.07
2019-01-30T00:34:49.368Z,45.17
2019-01-30T00:39:54.487Z,43.20
2019-01-30T00:44:59.577Z,44.83
2019-01-30T00:50:08.066Z,47.13
2019-01-30T00:55:13.380Z,51.93
2019-01-30T01:00:20.333Z,48.27
2019-01-30T01:05:25.387Z,44.63
2019-01-30T01:10:31.299Z,42.47
2019-01-30T01:15:36.510Z,39.93
2019-01-30T01:20:41.687Z,41.90
2019-01-30T01:25:46.837Z,50.03
2019-01-30T01:30:51.940Z,47.87
2019-01-30T01:35:59.675Z,48.13
2019-01-30T01:41:05.440Z,41.90
2019-01-30T01:46:10.645Z,43.90
2019-01-30T01:51:15.815Z,50.90
2019-01-30T01:56:20.946Z,38.50
2019-01-30T02:01:26.233Z,41.37
2019-01-30T02:06:31.474Z,42.77
2019-01-30T02:11:36.749Z,42.80
2019-01-30T02:16:42.244Z,44.30
2019-01-30T02:21:49.583Z,46.07
2019-01-30T02:26:54.875Z,40.07
2019-01-30T02:32:00.796Z,39.37
2019-01-30T02:37:05.800Z,42.57
2019-01-30T02:42:11.272Z,49.60
2019-01-30T02:47:16.363Z,47.37
2019-01-30T02:52:21.706Z,43.87
2019-01-30T02:57:26.759Z,41.97
2019-01-30T03:02:31.868Z,42.10
2019-01-30T03:07:39.262Z,43.60
2019-01-30T03:12:44.378Z,42.83
2019-01-30T03:17:49.593Z,43.97
2019-01-30T03:22:54.846Z,47.73
2019-01-30T03:28:01.688Z,47.43
2019-01-30T03:33:06.952Z,48.10
2019-01-30T03:38:11.967Z,49.37
2019-01-30T03:43:17.112Z,54.03
2019-01-30T03:48:22.257Z,56.73
2019-01-30T03:53:27.404Z,50.07
2019-01-30T03:58:32.680Z,49.17
2019-01-30T04:03:37.796Z,48.83
2019-01-30T04:08:43.031Z,49.17
2019-01-30T04:13:48.185Z,49.73
2019-01-30T04:18:53.334Z,49.13
2019-01-30T04:24:00.543Z,49.03
2019-01-30T04:29:08.154Z,45.90
2019-01-30T04:34:16.144Z,47.43
2019-01-30T04:39:23.170Z,44.43
2019-01-30T04:44:29.070Z,47.23
2019-01-30T04:49:34.612Z,44.30
2019-01-30T04:54:43.799Z,45.27
2019-01-30T04:59:51.107Z,44.70
2019-01-30T05:04:57.764Z,53.83
2019-01-30T05:10:08.162Z,51.90
2019-01-30T05:15:32.550Z,50.50
2019-01-30T05:20:40.430Z,52.57
2019-01-30T05:25:47.972Z,51.73
2019-01-30T05:30:53.904Z,53.40
2019-01-30T05:36:00.100Z,52.90
2019-01-30T05:41:05.608Z,53.03
2019-01-30T05:46:11.400Z,48.97
2019-01-30T05:51:17.410Z,50.20
2019-01-30T05:56:26.397Z,47.93
2019-01-30T06:01:39.219Z,50.90
2019-01-30T06:06:50.574Z,51.43
2019-01-30T06:11:59.475Z,47.90
2019-01-30T06:17:09.727Z,49.40
2019-01-30T06:22:15.571Z,47.77
2019-01-30T06:27:22.639Z,48.33
2019-01-30T06:32:30.225Z,46.37
2019-01-30T06:37:37.273Z,53.40
2019-01-30T06:42:42.500Z,49.17
2019-01-30T06:47:48.589Z,45.30
2019-01-30T06:52:54.971Z,45.80
2019-01-30T06:57:59.943Z,43.20
2019-01-30T07:03:05.168Z,44.57
2019-01-30T07:08:10.207Z,45.33
2019-01-30T07:13:15.497Z,44.43
2019-01-30T07:18:20.524Z,47.00
2019-01-30T07:23:26.063Z,42.47
2019-01-30T07:28:31.264Z,47.33
2019-01-30T07:33:37.046Z,40.37
2019-01-30T07:38:42.372Z,41.77
2019-01-30T07:43:47.720Z,40.20
2019-01-30T07:48:53.308Z,45.13
2019-01-30T07:53:58.489Z,43.67
2019-01-30T07:59:03.818Z,42.17
2019-01-30T08:04:08.884Z,39.07
2019-01-30T08:09:15.270Z,43.57
2019-01-30T08:14:20.442Z,33.20
2019-01-30T08:19:26.195Z,42.17
2019-01-30T08:24:31.765Z,41.60
2019-01-30T08:29:37.603Z,41.07
2019-01-30T08:34:43.251Z,38.63
2019-01-30T08:39:48.766Z,35.17
2019-01-30T08:44:54.136Z,35.97
2019-01-30T08:49:59.543Z,37.80
2019-01-30T08:55:05.558Z,34.43
2019-01-30T09:00:13.946Z,35.53
2019-01-30T09:05:19.362Z,37.30
2019-01-30T09:10:25.443Z,38.47
2019-01-30T09:15:30.673Z,39.43
2019-01-30T09:20:36.224Z,36.20
2019-01-30T09:25:41.486Z,40.20
2019-01-30T09:30:46.724Z,36.60
2019-01-30T09:35:51.976Z,39.13
2019-01-30T09:40:57.248Z,39.27
2019-01-30T09:46:02.646Z,42.13
2019-01-30T09:51:07.903Z,38.27
2019-01-30T09:56:15.491Z,32.80
2019-01-30T10:01:20.076Z,32.63
2019-01-30T10:06:25.428Z,35.57
2019-01-30T10:11:30.848Z,33.97
2019-01-30T10:16:36.670Z,32.77
2019-01-30T10:21:47.251Z,33.20
2019-01-30T10:26:54.623Z,33.43
2019-01-30T10:32:00.080Z,33.87
2019-01-30T10:37:05.723Z,34.07
2019-01-30T10:42:10.881Z,29.37
2019-01-30T10:47:18.034Z,31.13
2019-01-30T10:52:23.863Z,34.83
2019-01-30T10:57:29.176Z,37.93
2019-01-30T11:02:36.543Z,36.27
2019-01-30T11:07:41.855Z,33.57
2019-01-30T11:12:47.605Z,35.60
2019-01-30T11:17:59.213Z,31.53
2019-01-30T11:23:05.579Z,31.27
2019-01-30T11:28:11.521Z,32.33
2019-01-30T11:33:17.237Z,30.00
2019-01-30T11:38:22.540Z,29.37
2019-01-30T11:43:28.249Z,30.37
2019-01-30T11:48:33.903Z,30.37
2019-01-30T11:53:39.645Z,29.37
2019-01-30T11:58:46.510Z,27.27
2019-01-30T12:03:51.859Z,26.80
2019-01-30T12:08:57.497Z,25.77
2019-01-30T12:14:04.027Z,27.17
2019-01-30T12:19:09.321Z,25.47
2019-01-30T12:24:15.051Z,25.40
2019-01-30T12:29:20.505Z,27.87
2019-01-30T12:34:28.404Z,24.10
2019-01-30T12:39:37.763Z,25.77
2019-01-30T12:44:43.231Z,24.33
2019-01-30T12:49:48.941Z,28.43
2019-01-30T12:54:55.043Z,32.43
2019-01-30T13:00:07.277Z,29.83
2019-01-30T13:05:12.883Z,32.40
2019-01-30T13:10:20.054Z,33.37
2019-01-30T13:15:26.707Z,30.77
2019-01-30T13:20:32.119Z,29.17
2019-01-30T13:25:37.952Z,31.27
2019-01-30T13:30:44.961Z,33.00
2019-01-30T13:35:50.606Z,37.33
2019-01-30T13:40:55.959Z,38.30
2019-01-30T13:46:05.422Z,36.13
2019-01-30T13:51:17.995Z,32.43
2019-01-30T13:56:23.760Z,35.30
2019-01-30T14:01:29.593Z,35.83
2019-01-30T14:06:36.316Z,29.73
2019-01-30T14:11:47.091Z,28.90
2019-01-30T14:16:52.409Z,28.20
2019-01-30T14:22:09.542Z,30.70
2019-01-30T14:27:15.783Z,32.70
2019-01-30T14:32:21.191Z,31.20
2019-01-30T14:37:26.942Z,36.47
2019-01-30T14:42:32.195Z,32.83
2019-01-30T14:47:38.007Z,31.90
2019-01-30T14:52:44.360Z,31.53
2019-01-30T14:57:51.906Z,30.90
2019-01-30T15:03:00.388Z,29.30
2019-01-30T15:08:06.162Z,32.10
2019-01-30T15:13:12.479Z,28.50
2019-01-30T15:18:18.795Z,36.77
2019-01-30T15:23:25.577Z,33.73
2019-01-30T15:28:30.773Z,32.97
2019-01-30T15:33:37.102Z,37.20
2019-01-30T15:38:42.371Z,36.63
2019-01-30T15:43:47.683Z,35.57
2019-01-30T15:48:53.010Z,37.57
2019-01-30T15:53:58.279Z,38.77
2019-01-30T15:59:05.985Z,39.33
2019-01-30T16:04:11.557Z,35.03
2019-01-30T16:09:16.788Z,35.03
2019-01-30T16:14:22.313Z,37.33
2019-01-30T16:19:27.856Z,32.33
2019-01-30T16:24:33.081Z,32.03
2019-01-30T16:29:38.379Z,31.47
2019-01-30T16:34:43.981Z,41.37
2019-01-30T16:39:49.179Z,37.00
2019-01-30T16:44:56.129Z,35.80
2019-01-30T16:50:02.093Z,37.57
2019-01-30T16:55:07.499Z,38.33
2019-01-30T17:00:24.597Z,34.33
2019-01-30T17:05:30.805Z,37.03
2019-01-30T17:10:36.076Z,42.70
2019-01-30T17:15:41.669Z,34.73
2019-01-30T17:20:47.299Z,34.97
2019-01-30T17:25:52.862Z,34.00
2019-01-30T17:31:13.745Z,34.50
2019-01-30T17:36:19.757Z,31.40
2019-01-30T17:41:25.167Z,33.93
2019-01-30T17:46:31.049Z,32.30
2019-01-30T17:51:36.260Z,29.43
2019-01-30T17:56:41.687Z,30.23
2019-01-30T18:01:47.416Z,32.93
2019-01-30T18:06:52.975Z,33.17
2019-01-30T18:11:58.251Z,30.63
2019-01-30T18:17:03.585Z,35.40
2019-01-30T18:22:09.155Z,36.53
2019-01-30T18:27:14.591Z,39.57
2019-01-30T18:32:20.573Z,38.93
2019-01-30T18:37:26.362Z,35.70
2019-01-30T18:42:36.343Z,31.90
2019-01-30T18:47:41.877Z,37.80
2019-01-30T18:52:47.359Z,32.23
2019-01-30T18:57:52.705Z,31.60
2019-01-30T19:02:59.463Z,31.97
2019-01-30T19:08:05.085Z,33.73
2019-01-30T19:13:10.947Z,35.17
2019-01-30T19:18:37.443Z,30.43
2019-01-30T19:23:43.823Z,31.40
2019-01-30T19:28:52.078Z,32.03
2019-01-30T19:33:57.842Z,32.80
2019-01-30T19:39:04.039Z,32.87
2019-01-30T19:44:13.729Z,35.23
2019-01-30T19:49:21.525Z,30.33
2019-01-30T19:54:28.399Z,28.93
2019-01-30T19:59:33.579Z,28.43
2019-01-30T20:04:38.909Z,32.07
2019-01-30T20:09:51.835Z,35.10
2019-01-30T20:14:58.643Z,31.30
2019-01-30T20:20:04.747Z,30.87
2019-01-30T20:25:14.031Z,31.03
2019-01-30T20:30:21.097Z,34.60
2019-01-30T20:35:26.492Z,30.30
2019-01-30T20:40:47.246Z,34.10
2019-01-30T20:45:54.651Z,36.87
2019-01-30T20:51:00.522Z,30.77
2019-01-30T20:56:06.552Z,35.17
2019-01-30T21:01:12.565Z,33.93
2019-01-30T21:06:18.100Z,28.13
2019-01-30T21:11:23.401Z,24.70
2019-01-30T21:16:28.711Z,32.40
2019-01-30T21:21:39.096Z,32.57
2019-01-30T21:26:44.536Z,32.60
2019-01-30T21:31:50.265Z,35.43
2019-01-30T21:36:55.553Z,44.87
2019-01-30T21:42:08.717Z,38.40
2019-01-30T21:47:15.849Z,39.40
2019-01-30T21:52:23.973Z,32.67
2019-01-30T21:57:29.190Z,32.40
2019-01-30T22:02:37.585Z,40.60
2019-01-30T22:07:45.863Z,34.90
2019-01-30T22:12:53.447Z,38.73
2019-01-30T22:17:58.673Z,37.13
2019-01-30T22:23:05.424Z,40.07
2019-01-30T22:28:10.783Z,35.97
2019-01-30T22:33:18.897Z,38.43
2019-01-30T22:38:23.985Z,30.67
2019-01-30T22:43:29.291Z,31.97
2019-01-30T22:48:34.776Z,28.63
2019-01-30T22:53:42.681Z,39.53
2019-01-30T22:58:49.065Z,32.27
2019-01-30T23:04:42.063Z,33.40
2019-01-30T23:10:22.091Z,36.90
2019-01-30T23:15:49.222Z,33.53
2019-01-30T23:21:00.311Z,32.20
2019-01-30T23:26:18.924Z,30.03
2019-01-30T23:32:23.861Z,30.63
2019-01-30T23:38:03.400Z,34.93
2019-01-30T23:43:17.400Z,31.90
2019-01-30T23:49:10.838Z,32.97
2019-01-30T23:55:04.017Z,29.60
